Time;durP1;ratioP1;P1;durP2;ratioP2;P2;SDS_P1;SDS_P2;PMS_P1;PMS_P2;Temp;Humidity;BMP_temperature;BMP_pressure;BME280_temperature;BME280_humidity;BME280_pressure;Samples;Min_cycle;Max_cycle;Signal;HPM_P1;HPM_P2
2022/11/30 00:01:16;;;;;;;159.20;20.00;;;;;;;;;;5031262;28;20044;-62
2022/11/30 00:03:42;;;;;;;70.22;13.25;;;;;;;;;;5030844;28;20049;-62
2022/11/30 00:06:09;;;;;;;61.33;13.18;;;;;;;;;;5029980;28;20347;-62
2022/11/30 00:08:35;;;;;;;112.80;17.02;;;;;;;;;;5030135;28;20120;-62
2022/11/30 00:11:07;;;;;;;121.95;16.58;;;;;;;;;;5031593;28;20045;-62
2022/11/30 00:13:33;;;;;;;83.35;13.98;;;;;;;;;;5014305;28;20530;-62
2022/11/30 00:16:00;;;;;;;76.30;13.20;;;;;;;;;;5030650;28;20222;-62
2022/11/30 00:18:26;;;;;;;116.20;16.10;;;;;;;;;;5031809;28;20056;-62
2022/11/30 00:20:54;;;;;;;133.68;17.80;;;;;;;;;;5031015;28;20435;-62
2022/11/30 00:23:20;;;;;;;98.80;15.10;;;;;;;;;;5030209;28;20045;-64
2022/11/30 00:25:46;;;;;;;50.72;11.75;;;;;;;;;;5031254;28;20389;-61
2022/11/30 00:28:12;;;;;;;92.25;14.73;;;;;;;;;;4997124;28;20046;-61
2022/11/30 00:30:38;;;;;;;34.88;9.52;;;;;;;;;;5030401;28;20076;-62
2022/11/30 00:33:04;;;;;;;49.55;10.50;;;;;;;;;;5030764;28;20125;-64
2022/11/30 00:35:30;;;;;;;122.95;16.33;;;;;;;;;;5031865;28;20452;-61
2022/11/30 00:37:57;;;;;;;116.47;14.95;;;;;;;;;;5030145;28;20713;-64
2022/11/30 00:40:23;;;;;;;102.43;14.38;;;;;;;;;;5030609;28;20088;-61
2022/11/30 00:42:49;;;;;;;67.18;13.75;;;;;;;;;;5030159;28;20038;-61
2022/11/30 00:45:15;;;;;;;161.85;16.77;;;;;;;;;;5026381;28;20404;-62
2022/11/30 00:47:41;;;;;;;76.57;15.10;;;;;;;;;;5029685;28;20045;-62
2022/11/30 00:50:07;;;;;;;109.65;14.65;;;;;;;;;;5031688;28;20540;-62
2022/11/30 00:52:33;;;;;;;48.65;10.63;;;;;;;;;;5029651;28;20049;-63
2022/11/30 00:54:59;;;;;;;115.43;17.50;;;;;;;;;;5028831;28;20038;-62
2022/11/30 00:57:25;;;;;;;98.50;16.08;;;;;;;;;;5029284;28;20500;-62
2022/11/30 00:59:51;;;;;;;108.45;18.30;;;;;;;;;;5029880;28;20052;-63
2022/11/30 01:02:17;;;;;;;44.85;12.52;;;;;;;;;;5031164;28;20045;-62
2022/11/30 01:04:43;;;;;;;90.57;16.95;;;;;;;;;;5034059;28;20389;-62
2022/11/30 01:07:09;;;;;;;72.60;16.17;;;;;;;;;;5033282;28;20037;-63
2022/11/30 01:09:35;;;;;;;21.35;12.00;;;;;;;;;;5033250;28;20056;-62
2022/11/30 01:12:01;;;;;;;43.65;16.15;;;;;;;;;;5035107;28;20033;-63
2022/11/30 01:14:27;;;;;;;22.25;13.65;;;;;;;;;;5034317;28;20117;-63
2022/11/30 01:16:53;;;;;;;26.75;16.48;;;;;;;;;;5032723;28;20041;-63
2022/11/30 01:19:19;;;;;;;25.77;14.93;;;;;;;;;;5033335;28;20049;-63
2022/11/30 01:21:45;;;;;;;34.05;17.40;;;;;;;;;;5031999;28;20045;-63
2022/11/30 01:24:11;;;;;;;31.67;18.13;;;;;;;;;;5029628;28;20536;-63
2022/11/30 01:26:37;;;;;;;38.05;19.48;;;;;;;;;;5021605;28;20049;-63
2022/11/30 01:29:03;;;;;;;33.75;18.67;;;;;;;;;;5032163;28;20053;-63
2022/11/30 01:31:29;;;;;;;30.85;17.80;;;;;;;;;;5033711;28;20037;-63
2022/11/30 01:33:55;;;;;;;28.67;17.60;;;;;;;;;;5033829;28;20045;-63
2022/11/30 01:36:24;;;;;;;30.75;17.85;;;;;;;;;;5033096;28;20053;-63
2022/11/30 01:38:51;;;;;;;38.65;19.58;;;;;;;;;;5033344;28;20452;-62
2022/11/30 01:41:20;;;;;;;37.13;19.30;;;;;;;;;;5033994;28;20133;-63
2022/11/30 01:43:57;;;;;;;36.85;19.50;;;;;;;;;;5033992;28;20128;-63
2022/11/30 01:49:06;;;;;;;43.35;19.92;;;;;;;;;;5075804;22;20050;-63
2022/11/30 01:51:37;;;;;;;45.10;20.42;;;;;;;;;;5044930;23;20501;-63
2022/11/30 01:54:05;;;;;;;47.25;22.70;;;;;;;;;;5034505;28;20136;-63
2022/11/30 01:56:32;;;;;;;50.67;22.08;;;;;;;;;;5033478;28;20056;-63
2022/11/30 01:58:58;;;;;;;47.92;22.52;;;;;;;;;;5009083;28;20490;-63
2022/11/30 02:01:24;;;;;;;36.75;19.65;;;;;;;;;;4989550;28;20508;-63
2022/11/30 02:04:01;;;;;;;42.40;19.77;;;;;;;;;;5038762;23;20447;-64
2022/11/30 02:06:28;;;;;;;42.30;20.45;;;;;;;;;;5061274;22;20053;-63
2022/11/30 02:08:54;;;;;;;46.58;21.92;;;;;;;;;;5010121;22;20062;-64
2022/11/30 02:11:21;;;;;;;50.50;21.30;;;;;;;;;;4974783;28;20451;-64
2022/11/30 02:13:47;;;;;;;43.92;21.83;;;;;;;;;;4980027;28;20050;-63
2022/11/30 02:16:19;;;;;;;36.22;19.58;;;;;;;;;;4993695;28;20058;-63
2022/11/30 02:19:10;;;;;;;32.83;17.05;;;;;;;;;;4992580;28;20043;-63
2022/11/30 02:22:01;;;;;;;46.88;20.55;;;4.40;99.90;;;;;;4986016;28;20046;-63
2022/11/30 02:24:45;;;;;;;57.78;22.85;;;;;;;;;;4992922;28;20518;-63
2022/11/30 02:27:23;;;;;;;41.40;18.92;;;;;;;;;;4993691;28;20129;-63
2022/11/30 02:29:58;;;;;;;27.63;15.73;;;;;;;;;;4957589;28;20043;-63
2022/11/30 02:32:33;;;;;;;28.77;15.68;;;;;;;;;;4974846;28;20097;-63
2022/11/30 02:35:01;;;;;;;34.97;17.88;;;;;;;;;;4987753;28;20136;-63
2022/11/30 02:37:28;;;;;;;37.83;19.15;;;;;;;;;;4975358;28;20458;-63
2022/11/30 02:39:54;;;;;;;44.47;19.05;;;;;;;;;;4993410;28;20081;-62
2022/11/30 02:42:20;;;;;;;31.95;17.55;;;;;;;;;;4993658;28;20092;-63
2022/11/30 02:44:48;;;;;;;39.55;18.92;;;;;;;;;;4976007;28;20082;-62
2022/11/30 02:47:20;;;;;;;40.15;19.60;;;;;;;;;;4972940;28;20047;-62
2022/11/30 02:49:54;;;;;;;40.85;19.60;;;;;;;;;;4968534;28;20127;-62
2022/11/30 02:52:23;;;;;;;41.45;19.85;;;;;;;;;;4975834;28;20061;-62
2022/11/30 02:54:49;;;;;;;26.50;14.65;;;;;;;;;;4992298;28;20061;-63
2022/11/30 02:57:15;;;;;;;30.85;16.58;;;;;;;;;;4973090;28;20089;-62
2022/11/30 02:59:41;;;;;;;41.72;18.17;;;;;;;;;;4974127;28;20050;-63
2022/11/30 03:02:07;;;;;;;35.58;18.20;;;;;;;;;;4980012;28;20045;-62
2022/11/30 03:04:33;;;;;;;34.55;16.63;;;;;;;;;;4992558;28;20046;-63
2022/11/30 03:07:00;;;;;;;32.15;16.67;;;;;;;;;;4974937;28;20058;-63
2022/11/30 03:09:26;;;;;;;35.70;17.08;;;;;;;;;;4968363;28;20054;-64
2022/11/30 03:11:52;;;;;;;38.28;17.55;;;;;;;;;;5011451;28;20078;-63
2022/11/30 03:14:18;;;;;;;39.60;18.77;;;;;;;;;;4995112;28;20125;-63
2022/11/30 03:16:44;;;;;;;31.15;15.45;;;;;;;;;;4995385;28;20447;-63
2022/11/30 03:19:10;;;;;;;37.83;17.20;;;;;;;;;;5012633;28;20056;-63
2022/11/30 03:21:36;;;;;;;40.08;17.95;;;;;;;;;;5012393;28;20049;-63
2022/11/30 03:24:02;;;;;;;37.72;17.83;;;;;;;;;;4993142;28;20041;-64
2022/11/30 03:26:28;;;;;;;32.50;17.23;;;;;;;;;;5010258;28;20053;-63
2022/11/30 03:28:54;;;;;;;42.90;18.48;;;;;;;;;;4994382;28;20050;-63
2022/11/30 03:31:20;;;;;;;40.78;19.88;;;;;;;;;;5012008;28;20072;-63
2022/11/30 03:33:46;;;;;;;49.33;20.40;;;;;;;;;;5011082;28;20494;-64
2022/11/30 03:36:12;;;;;;;52.47;22.08;;;;;;;;;;4987017;28;20125;-64
2022/11/30 03:38:39;;;;;;;47.30;22.90;;;;;;;;;;4985925;28;20053;-63
2022/11/30 03:41:10;;;;;;;60.58;23.38;;;;;;;;;;4995020;28;20060;-64
2022/11/30 03:43:36;;;;;;;67.45;24.30;;;;;;;;;;5011689;28;20052;-64
2022/11/30 03:46:03;;;;;;;62.85;23.50;;;;;;;;;;5012555;28;20124;-63
2022/11/30 03:48:29;;;;;;;73.97;24.77;;;;;;;;;;5012501;28;20053;-64
2022/11/30 03:50:56;;;;;;;153.35;26.20;;;;;;;;;;5009652;28;20046;-63
2022/11/30 03:53:22;;;;;;;415.08;34.92;;;;;;;;;;5010992;28;20076;-64
2022/11/30 03:55:56;;;;;;;210.98;22.63;;;;;;;;;;4994653;28;20057;-63
2022/11/30 03:58:23;;;;;;;38.72;14.55;;;;;;;;;;5007029;28;20045;-64
2022/11/30 04:00:49;;;;;;;33.35;13.80;;;;;;;;;;5010168;28;20042;-63
2022/11/30 04:03:15;;;;;;;31.60;14.13;;;;;;;;;;5011886;28;20042;-63
2022/11/30 04:05:42;;;;;;;112.72;18.60;;;;;;;;;;5005707;28;20419;-64
2022/11/30 04:08:08;;;;;;;82.18;16.08;;;;;;;;;;5008436;28;20069;-63
2022/11/30 04:10:34;;;;;;;147.60;21.75;;;;;;;;;;5012057;28;20061;-64
2022/11/30 04:13:00;;;;;;;39.22;14.88;;;;;;;;;;5010915;28;20049;-65
2022/11/30 04:15:26;;;;;;;49.80;15.27;;;;;;;;;;5010091;28;20131;-64
2022/11/30 04:17:52;;;;;;;57.05;15.10;;;;;;;;;;4992905;28;20046;-63
2022/11/30 04:20:18;;;;;;;50.03;15.98;;;;;;;;;;4993726;28;20104;-63
2022/11/30 04:22:44;;;;;;;32.25;15.13;;;;;;;;;;5011323;28;20073;-63
2022/11/30 04:25:10;;;;;;;80.40;17.88;;;;;;;;;;4973322;28;20116;-63
2022/11/30 04:27:36;;;;;;;37.40;15.48;;;;;;;;;;4994991;28;20081;-63
2022/11/30 04:30:02;;;;;;;40.45;16.88;;;;;;;;;;4994628;28;20466;-63
2022/11/30 04:32:28;;;;;;;38.40;14.85;;;;;;;;;;4994404;28;20088;-64
2022/11/30 04:34:54;;;;;;;38.65;17.00;;;;;;;;;;4989828;28;20510;-64
2022/11/30 04:37:20;;;;;;;38.53;16.83;;;;;;;;;;4982122;28;20042;-64
2022/11/30 04:39:46;;;;;;;37.17;17.45;;;;;;;;;;5013320;28;20052;-64
2022/11/30 04:42:12;;;;;;;37.20;16.35;;;;;;;;;;5015906;28;20081;-64
2022/11/30 04:44:39;;;;;;;29.30;15.57;;;;;;;;;;4998073;28;20042;-63
2022/11/30 04:47:05;;;;;;;36.00;17.25;;;;;;;;;;4998828;28;20093;-63
2022/11/30 04:49:31;;;;;;;33.13;16.05;;;;;;;;;;4998355;28;20453;-63
2022/11/30 04:51:57;;;;;;;35.30;16.48;;;;;;;;;;5015109;28;20383;-64
2022/11/30 04:54:23;;;;;;;45.47;17.25;;;;;;;;;;4996890;28;20095;-64
2022/11/30 04:56:49;;;;;;;28.08;14.48;;;;;;;;;;4997981;28;20045;-63
2022/11/30 04:59:15;;;;;;;24.63;13.98;;;;;;;;;;5015783;28;20054;-64
2022/11/30 05:01:41;;;;;;;32.78;16.55;;;;;;;;;;5015398;28;20053;-64
2022/11/30 05:04:07;;;;;;;49.83;19.65;;;;;;;;;;5013801;28;20042;-64
2022/11/30 05:06:33;;;;;;;37.00;16.70;;;;;;;;;;4997503;28;20054;-63
2022/11/30 05:08:59;;;;;;;37.08;17.52;;;;;;;;;;5013224;28;20844;-64
2022/11/30 05:11:25;;;;;;;31.25;17.00;;;;;;;;;;4997562;28;20056;-63
2022/11/30 05:13:51;;;;;;;30.80;16.20;;;;;;;;;;5014101;28;20050;-63
2022/11/30 05:16:17;;;;;;;42.28;19.20;;;;;;;;;;4998175;28;20454;-63
2022/11/30 05:18:43;;;;;;;36.92;17.70;;;;;;;;;;4997093;28;20050;-63
2022/11/30 05:21:09;;;;;;;43.47;19.58;;;;;;;;;;5014470;28;20398;-63
2022/11/30 05:23:35;;;;;;;38.10;19.15;;;;;;;;;;5013277;28;20053;-63
2022/11/30 05:26:26;;;;;;;29.15;16.52;;;3.30;99.90;;;;;;5065654;22;20062;-64
2022/11/30 05:28:53;;;;;;;26.92;15.23;;;;;;;;;;5063321;22;20061;-63
2022/11/30 05:31:19;;;;;;;54.85;19.05;;;;;;;;;;5054481;28;20057;-63
2022/11/30 05:33:49;;;;;;;32.17;16.15;;;;;;;;;;5019618;28;20053;-63
2022/11/30 05:36:15;;;;;;;41.97;18.17;;;;;;;;;;5034680;28;20049;-63
2022/11/30 05:38:41;;;;;;;47.53;19.90;;;;;;;;;;5036166;28;20048;-63
2022/11/30 05:41:07;;;;;;;44.15;18.42;;;;;;;;;;5036520;28;20067;-63
2022/11/30 05:43:33;;;;;;;40.10;20.33;;;;;;;;;;5054313;28;20106;-63
2022/11/30 05:46:00;;;;;;;59.70;25.02;;;;;;;;;;5053529;28;20294;-63
2022/11/30 05:48:26;;;;;;;73.25;29.70;;;;;;;;;;5052458;28;20041;-64
2022/11/30 05:50:52;;;;;;;64.32;26.05;;;;;;;;;;5035427;28;20099;-64
2022/11/30 05:53:18;;;;;;;52.30;22.27;;;;;;;;;;5036196;28;20053;-63
2022/11/30 05:55:44;;;;;;;74.20;24.67;;;;;;;;;;5016824;28;20049;-63
2022/11/30 05:58:10;;;;;;;76.95;24.10;;;;;;;;;;5031463;28;20045;-63
2022/11/30 06:00:36;;;;;;;73.65;25.00;;;;;;;;;;5036288;28;20095;-63
2022/11/30 06:03:02;;;;;;;49.53;22.20;;;;;;;;;;5036174;28;20077;-63
2022/11/30 06:05:28;;;;;;;69.60;24.95;;;;;;;;;;5034486;28;20562;-63
2022/11/30 06:07:54;;;;;;;77.78;26.42;;;;;;;;;;5053201;28;20044;-63
2022/11/30 06:10:21;;;;;;;80.18;25.95;;;;;;;;;;5031276;28;20045;-63
2022/11/30 06:12:47;;;;;;;81.93;27.60;;;;;;;;;;5053281;28;20516;-63
2022/11/30 06:15:13;;;;;;;75.13;27.80;;;;;;;;;;5037458;28;20084;-63
2022/11/30 06:17:39;;;;;;;71.40;25.52;;;;;;;;;;5052013;28;20071;-64
2022/11/30 06:20:06;;;;;;;75.90;26.25;;;;;;;;;;5053717;28;20049;-63
2022/11/30 06:22:32;;;;;;;81.95;30.08;;;;;;;;;;5053616;28;20056;-63
2022/11/30 06:24:58;;;;;;;61.80;27.65;;;;;;;;;;5035250;28;20052;-63
2022/11/30 06:27:24;;;;;;;77.45;27.90;;;;;;;;;;5029058;28;20053;-63
2022/11/30 06:29:50;;;;;;;81.63;29.90;;;;;;;;;;5025167;28;20501;-64
2022/11/30 06:32:16;;;;;;;66.90;27.05;;;;;;;;;;5035793;28;20056;-63
2022/11/30 06:34:42;;;;;;;63.17;26.23;;;;;;;;;;5035265;28;20037;-63
2022/11/30 06:37:08;;;;;;;60.50;26.85;;;;;;;;;;5052882;28;20489;-63
2022/11/30 06:39:34;;;;;;;74.15;29.75;;;;;;;;;;5034987;28;20037;-63
2022/11/30 06:42:00;;;;;;;65.93;27.02;;;;;;;;;;5053210;28;20075;-63
2022/11/30 06:44:26;;;;;;;71.72;29.80;;;;;;;;;;5053202;28;20060;-63
2022/11/30 06:46:52;;;;;;;67.70;28.25;;;;;;;;;;5051936;28;20045;-63
2022/11/30 06:49:18;;;;;;;69.15;27.73;;;;;;;;;;5035755;28;20059;-64
2022/11/30 06:51:44;;;;;;;67.30;27.40;;;;;;;;;;5052686;28;20041;-63
2022/11/30 06:54:10;;;;;;;64.65;27.77;;;;;;;;;;5046443;28;20053;-63
2022/11/30 06:56:36;;;;;;;71.95;26.23;;;;;;;;;;5051186;28;20048;-65
2022/11/30 06:59:02;;;;;;;64.85;29.52;;;;;;;;;;5023547;28;20052;-64
2022/11/30 07:01:28;;;;;;;62.65;26.92;;;;;;;;;;5034209;28;20045;-61
2022/11/30 07:03:54;;;;;;;67.05;28.00;;;;;;;;;;5052784;28;20080;-62
2022/11/30 07:06:20;;;;;;;69.32;28.17;;;;;;;;;;5035118;28;20048;-62
2022/11/30 07:08:46;;;;;;;71.72;30.73;;;;;;;;;;5045399;28;20044;-61
2022/11/30 07:11:12;;;;;;;56.33;25.73;;;;;;;;;;5051332;28;20048;-62
2022/11/30 07:13:39;;;;;;;57.10;26.95;;;;;;;;;;5029922;28;20485;-61
2022/11/30 07:16:06;;;;;;;73.65;31.00;;;;;;;;;;5051656;28;20102;-62
2022/11/30 07:18:32;;;;;;;80.88;29.65;;;;;;;;;;5052266;28;20091;-61
2022/11/30 07:20:59;;;;;;;59.17;26.30;;;;;;;;;;5034816;28;20049;-62
2022/11/30 07:26:11;;;;;;;53.60;23.98;;;;;;;;;;5048412;28;20049;-62
2022/11/30 07:28:38;;;;;;;53.97;25.73;;;;;;;;;;5029982;28;20049;-62
2022/11/30 07:31:20;;;;;;;66.03;27.38;;;;;;;;;;5020875;28;20523;-62
2022/11/30 07:33:46;;;;;;;60.30;23.98;;;;;;;;;;5032814;28;20077;-62
2022/11/30 07:36:12;;;;;;;80.82;29.05;;;;;;;;;;5033801;28;20053;-62
2022/11/30 07:38:39;;;;;;;65.30;27.83;;;;;;;;;;5051556;28;20091;-62
2022/11/30 07:41:06;;;;;;;66.95;27.08;;;;;;;;;;5050891;28;20125;-61
2022/11/30 07:43:32;;;;;;;60.42;26.75;;;;;;;;;;5027408;28;20111;-62
2022/11/30 07:45:59;;;;;;;63.97;28.35;;;;;;;;;;5040609;28;20397;-62
2022/11/30 07:48:25;;;;;;;49.67;23.10;;;;;;;;;;5034511;28;20128;-62
2022/11/30 07:50:51;;;;;;;74.50;29.33;;;;;;;;;;5032808;28;20140;-62
2022/11/30 07:53:17;;;;;;;39.20;20.30;;;;;;;;;;5051018;28;20106;-62
2022/11/30 07:55:43;;;;;;;72.28;29.45;;;;;;;;;;5013931;28;20048;-62
2022/11/30 07:58:10;;;;;;;63.63;27.67;;;;;;;;;;5040888;28;20120;-62
2022/11/30 08:00:36;;;;;;;66.32;28.20;;;;;;;;;;5031334;28;20068;-62
2022/11/30 08:03:02;;;;;;;43.83;22.55;;;;;;;;;;5014135;28;20077;-63
2022/11/30 08:05:28;;;;;;;74.55;27.77;;;;;;;;;;5002967;28;20059;-62
2022/11/30 08:07:54;;;;;;;67.18;29.52;;;;;;;;;;5042667;28;20044;-62
2022/11/30 08:10:21;;;;;;;79.95;31.95;;;;;;;;;;5021598;28;20506;-62
2022/11/30 08:12:47;;;;;;;82.70;32.80;;;;;;;;;;5013213;28;20128;-61
2022/11/30 08:15:13;;;;;;;84.28;33.40;;;;;;;;;;5027357;28;20136;-62
2022/11/30 08:17:39;;;;;;;87.50;33.65;;;;;;;;;;5032766;28;20520;-64
2022/11/30 08:20:06;;;;;;;81.18;31.25;;;;;;;;;;5031892;28;20075;-62
2022/11/30 08:22:33;;;;;;;76.43;31.08;;;;;;;;;;5031961;28;20123;-62
2022/11/30 08:24:59;;;;;;;95.40;33.53;;;;;;;;;;5051244;28;20051;-62
2022/11/30 08:27:25;;;;;;;85.43;32.78;;;;;;;;;;5034872;28;20087;-62
2022/11/30 08:29:51;;;;;;;53.05;25.45;;;;;;;;;;5061981;22;20058;-62
2022/11/30 08:32:17;;;;;;;78.75;32.38;;;;;;;;;;5067920;23;20413;-63
2022/11/30 08:34:44;;;;;;;93.65;34.25;;;;;;;;;;5036869;28;20425;-62
2022/11/30 08:37:10;;;;;;;90.18;33.50;;;;;;;;;;5033847;28;20052;-63
2022/11/30 08:39:36;;;;;;;87.82;31.58;;;;;;;;;;5043040;28;20498;-62
2022/11/30 08:42:02;;;;;;;96.53;34.42;;;;;;;;;;5013257;28;20061;-62
2022/11/30 08:44:28;;;;;;;89.57;33.92;;;;;;;;;;5031014;28;20084;-62
2022/11/30 08:46:55;;;;;;;95.70;32.78;;;;;;;;;;5016186;28;20128;-62
2022/11/30 08:49:22;;;;;;;62.03;25.85;;;;;;;;;;5065063;23;20208;-62
2022/11/30 08:51:52;;;;;;;92.20;33.95;;;;;;;;;;5012560;28;20041;-62
2022/11/30 08:54:18;;;;;;;104.00;35.40;;;;;;;;;;5030289;28;20047;-64
2022/11/30 08:56:44;;;;;;;83.60;32.60;;;;;;;;;;5010833;28;20042;-62
2022/11/30 08:59:10;;;;;;;84.03;33.13;;;;;;;;;;5019013;28;20037;-62
2022/11/30 09:01:36;;;;;;;98.00;34.85;;;;;;;;;;5030205;28;20051;-61
2022/11/30 09:04:03;;;;;;;102.63;35.70;;;;;;;;;;5030589;28;20056;-62
2022/11/30 09:06:29;;;;;;;98.95;35.22;;;;;;;;;;5029465;28;20049;-63
2022/11/30 09:08:56;;;;;;;94.47;34.78;;;;;;;;;;5028480;28;20049;-62
2022/11/30 09:11:27;;;;;;;98.63;34.30;;;;;;;;;;5030273;28;20053;-61
2022/11/30 09:13:54;;;;;;;102.03;35.30;;;;;;;;;;5028364;28;20065;-61
2022/11/30 09:16:21;;;;;;;96.75;35.90;;;;;;;;;;5026243;28;20566;-62
2022/11/30 09:18:47;;;;;;;89.72;33.88;;;;;;;;;;5012245;28;20453;-62
2022/11/30 09:21:15;;;;;;;91.10;36.95;;;;;;;;;;5031109;28;20131;-62
2022/11/30 09:23:41;;;;;;;90.63;34.53;;;;;;;;;;5024779;28;20053;-61
2022/11/30 09:26:10;;;;;;;82.40;33.10;;;;;;;;;;5033754;28;20053;-61
2022/11/30 09:28:36;;;;;;;78.97;31.23;;;;;;;;;;5033091;28;20129;-60
2022/11/30 09:31:03;;;;;;;73.53;31.80;;;;;;;;;;5035035;28;20085;-61
2022/11/30 09:33:30;;;;;;;73.70;30.08;;;;;;;;;;5032339;28;20245;-61
2022/11/30 09:36:00;;;;;;;76.90;29.00;;;;;;;;;;5005084;28;20065;-60
2022/11/30 09:38:26;;;;;;;75.05;30.80;;;;;;;;;;5033579;28;20090;-60
2022/11/30 09:40:56;;;;;;;73.78;30.38;;;;;;;;;;5023182;28;20467;-61
2022/11/30 09:43:25;;;;;;;73.67;30.77;;;;;;;;;;5015065;28;20057;-61
2022/11/30 09:45:55;;;;;;;79.78;30.13;;;;;;;;;;5013328;28;20292;-60
2022/11/30 09:48:30;;;;;;;77.03;30.95;;;;;;;;;;5016708;28;20172;-61
2022/11/30 09:50:59;;;;;;;72.38;31.25;;;;;;;;;;5032066;28;20041;-60
2022/11/30 09:53:39;;;;;;;76.43;29.88;;;;;;;;;;5033598;28;20133;-60
2022/11/30 09:56:14;;;;;;;70.97;30.92;;;;;;;;;;5033056;28;20509;-60
2022/11/30 09:58:51;;;;;;;67.88;29.17;;;;;;;;;;5033899;28;20048;-60
2022/11/30 10:01:18;;;;;;;72.82;31.05;;;;;;;;;;5032993;28;20490;-61
2022/11/30 10:03:44;;;;;;;69.30;29.92;;;;;;;;;;5031682;28;20056;-61
2022/11/30 10:06:48;;;;;;;59.97;27.48;;;6.70;99.90;;;;;;5028705;28;20191;-61
2022/11/30 10:10:06;;;;;;;70.75;30.95;;;6.70;99.90;;;;;;5030825;28;20042;-61
2022/11/30 10:13:06;;;;;;;74.50;31.33;;;7.20;99.90;;;;;;4966918;28;20147;-61
2022/11/30 10:15:35;;;;;;;71.87;30.50;;;;;;;;;;4972836;28;20571;-61
2022/11/30 10:18:23;;;;;;;71.68;29.27;;;;;;;;;;4988931;28;20821;-60
2022/11/30 10:21:28;;;;;;;64.78;29.33;;;;;;;;;;4982557;28;20062;-60
2022/11/30 10:24:02;;;;;;;70.80;30.33;;;;;;;;;;4915093;29;20044;-61
2022/11/30 10:26:31;;;;;;;67.07;28.38;;;;;;;;;;4926628;29;20058;-61
2022/11/30 10:29:01;;;;;;;74.65;30.10;;;;;;;;;;4930964;29;20051;-61
2022/11/30 10:31:34;;;;;;;67.83;28.80;;;;;;;;;;4933709;29;20448;-61
2022/11/30 10:34:12;;;;;;;66.30;29.05;;;;;;;;;;4917631;29;20071;-61
2022/11/30 10:36:42;;;;;;;66.70;29.65;;;;;;;;;;4917106;29;20080;-61
2022/11/30 10:39:19;;;;;;;65.47;27.10;;;;;;;;;;4916300;29;20039;-62
2022/11/30 10:42:08;;;;;;;58.05;27.23;;;;;;;;;;4916918;29;20051;-61
2022/11/30 10:44:38;;;;;;;62.25;27.17;;;;;;;;;;4929047;29;20126;-61
2022/11/30 10:47:12;;;;;;;54.55;27.02;;;;;;;;;;4929593;28;20061;-64
2022/11/30 10:49:41;;;;;;;52.90;26.77;;;;;;;;;;4972947;28;20058;-62
2022/11/30 10:52:08;;;;;;;59.75;26.23;;;;;;;;;;4971898;28;20435;-62
2022/11/30 10:54:35;;;;;;;55.75;26.85;;;;;;;;;;4981991;28;20106;-61
2022/11/30 10:57:02;;;;;;;56.13;26.02;;;;;;;;;;4998034;28;20054;-62
2022/11/30 10:59:48;;;;;;;63.40;25.65;;;7.30;99.90;;;;;;5013110;28;20379;-61
2022/11/30 11:02:44;;;;;;;49.28;24.67;;;7.20;99.90;;;;;;5013167;28;20053;-61
2022/11/30 11:05:22;;;;;;;54.92;25.27;;;;;;;;;;5011836;28;20042;-61
2022/11/30 11:07:49;;;;;;;56.42;26.02;;;;;;;;;;5011682;28;20136;-61
2022/11/30 11:10:17;;;;;;;57.30;27.65;;;;;;;;;;4995559;28;20483;-61
2022/11/30 11:12:51;;;;;;;55.30;27.05;;;;;;;;;;5009482;28;20069;-61
2022/11/30 11:15:19;;;;;;;48.28;25.33;;;;;;;;;;5005692;28;20054;-61
2022/11/30 11:17:45;;;;;;;52.35;25.30;;;;;;;;;;5008289;28;20042;-61
2022/11/30 11:20:28;;;;;;;55.28;26.23;;;;;;;;;;5012974;28;20038;-61
2022/11/30 11:22:54;;;;;;;55.80;25.70;;;;;;;;;;4990695;28;20038;-61
2022/11/30 11:25:29;;;;;;;54.67;28.80;;;;;;;;;;5003466;28;20045;-61
2022/11/30 11:28:01;;;;;;;49.15;25.02;;;;;;;;;;5003559;28;20034;-61
2022/11/30 11:30:29;;;;;;;55.15;27.35;;;;;;;;;;4979583;28;20060;-61
2022/11/30 11:33:18;;;;;;;51.00;25.27;;;;;;;;;;5006931;28;20073;-61
2022/11/30 11:35:49;;;;;;;52.60;25.25;;;;;;;;;;5011036;28;20414;-61
2022/11/30 11:38:27;;;;;;;53.70;27.80;;;;;;;;;;5009952;28;20052;-61
2022/11/30 11:40:58;;;;;;;54.47;26.23;;;;;;;;;;5012191;28;20062;-61
2022/11/30 11:43:26;;;;;;;53.08;26.13;;;;;;;;;;5011224;28;20072;-61
2022/11/30 11:45:53;;;;;;;46.45;24.25;;;;;;;;;;5011174;28;20427;-61
2022/11/30 11:48:40;;;;;;;49.05;24.38;;;;;;;;;;5006785;28;20056;-61
2022/11/30 11:51:08;;;;;;;47.17;23.88;;;;;;;;;;5009626;28;20481;-61
2022/11/30 11:53:55;;;;;;;58.20;25.23;;;;;;;;;;4996762;28;20108;-61
2022/11/30 11:56:47;;;;;;;50.10;26.25;;;;;;;;;;5018393;28;20045;-61
2022/11/30 11:59:41;;;;;;;50.70;26.73;;;7.40;99.90;;;;;;4989356;28;20058;-61
2022/11/30 12:02:07;;;;;;;49.05;25.80;;;;;;;;;;5011103;28;20058;-61
2022/11/30 12:04:40;;;;;;;49.58;25.52;;;;;;;;;;5027901;28;20579;-61
2022/11/30 12:07:16;;;;;;;51.05;25.08;;;;;;;;;;5030469;28;20056;-61
2022/11/30 12:09:46;;;;;;;51.88;24.35;;;;;;;;;;5028566;28;20053;-60
2022/11/30 12:12:12;;;;;;;42.83;21.35;;;;;;;;;;5031045;28;20103;-61
2022/11/30 12:14:39;;;;;;;39.25;21.08;;;;;;;;;;5031289;28;20138;-61
2022/11/30 12:17:23;;;;;;;46.03;21.67;;;;;;;;;;5018501;28;20052;-60
2022/11/30 12:20:01;;;;;;;44.03;22.42;;;;;;;;;;5021799;23;20058;-60
2022/11/30 12:22:36;;;;;;;43.38;21.42;;;;;;;;;;5031285;28;20510;-61
2022/11/30 12:27:37;;;;;;;41.47;23.35;;;;;;;;;;5054884;22;20059;-61
2022/11/30 12:30:14;;;;;;;43.05;21.42;;;;;;;;;;5051021;28;20056;-62
2022/11/30 12:33:12;;;;;;;46.60;24.52;;;7.30;99.90;;;;;;5050022;28;20045;-61
2022/11/30 12:35:48;;;;;;;45.65;22.38;;;;;;;;;;5051769;28;20076;-61
2022/11/30 12:38:34;;;;;;;41.03;22.00;;;;;;;;;;5034001;28;20107;-60
2022/11/30 12:41:07;;;;;;;46.00;22.45;;;;;;;;;;5060507;23;21544;-60
2022/11/30 12:43:58;;;;;;;39.85;20.20;;;;;;;;;;5005804;28;20057;-61
2022/11/30 12:46:24;;;;;;;41.17;21.90;;;;;;;;;;5042096;22;20065;-61
2022/11/30 12:48:59;;;;;;;39.70;21.23;;;;;;;;;;5010319;28;20060;-60
2022/11/30 12:51:31;;;;;;;41.67;21.50;;;;;;;;;;5010437;28;20057;-60
2022/11/30 12:54:09;;;;;;;44.65;22.75;;;;;;;;;;5022094;28;20045;-61
2022/11/30 12:56:59;;;;;;;45.47;22.33;;;;;;;;;;5030763;28;20056;-59
2022/11/30 12:59:49;;;;;;;41.92;22.50;;;7.20;99.90;;;;;;5012403;28;20049;-60
2022/11/30 13:02:28;;;;;;;41.60;22.98;;;;;;;;;;5033804;28;20394;-61
2022/11/30 13:05:02;;;;;;;46.75;22.73;;;;;;;;;;5034647;28;20041;-61
2022/11/30 13:07:28;;;;;;;47.13;22.80;;;;;;;;;;5002367;28;20077;-60
2022/11/30 13:10:04;;;;;;;44.38;24.25;;;;;;;;;;5034861;28;20076;-60
2022/11/30 13:12:35;;;;;;;49.13;24.13;;;;;;;;;;5034680;28;20103;-60
2022/11/30 13:15:03;;;;;;;46.00;21.95;;;;;;;;;;5031955;28;20045;-60
2022/11/30 13:17:31;;;;;;;39.38;21.23;;;;;;;;;;5015050;28;20084;-60
2022/11/30 13:20:03;;;;;;;49.28;22.85;;;;;;;;;;5016517;28;20858;-60
2022/11/30 13:22:38;;;;;;;45.60;24.48;;;;;;;;;;5033483;28;20057;-60
2022/11/30 13:25:25;;;;;;;45.33;24.55;;;;;;;;;;5033857;28;20095;-61
2022/11/30 13:27:56;;;;;;;45.75;22.38;;;;;;;;;;4997398;28;20130;-60
2022/11/30 13:30:28;;;;;;;52.42;26.80;;;;;;;;;;5015036;28;20089;-61
2022/11/30 13:32:54;;;;;;;47.90;26.38;;;;;;;;;;5027445;28;20398;-61
2022/11/30 13:35:29;;;;;;;47.30;24.88;;;;;;;;;;5015032;28;20049;-61
2022/11/30 13:38:06;;;;;;;48.90;26.30;;;;;;;;;;5034262;28;20077;-61
2022/11/30 13:40:32;;;;;;;50.47;26.25;;;;;;;;;;5032604;28;20072;-61
2022/11/30 13:42:58;;;;;;;55.70;28.35;;;;;;;;;;5016326;28;20049;-61
2022/11/30 13:45:32;;;;;;;52.05;24.67;;;;;;;;;;5039149;28;20565;-60
2022/11/30 13:47:59;;;;;;;53.28;27.40;;;;;;;;;;5040817;28;20051;-60
2022/11/30 13:50:31;;;;;;;50.63;26.27;;;;;;;;;;5048368;28;20098;-60
2022/11/30 13:52:57;;;;;;;52.92;25.88;;;;;;;;;;5026350;28;20501;-60
2022/11/30 13:55:35;;;;;;;56.33;29.35;;;;;;;;;;5053767;28;20124;-60
2022/11/30 13:58:04;;;;;;;57.15;28.13;;;;;;;;;;5051702;28;20073;-60
2022/11/30 14:00:30;;;;;;;57.10;29.65;;;;;;;;;;5050515;28;20049;-60
2022/11/30 14:03:15;;;;;;;60.38;31.02;;;;;;;;;;5047198;28;20382;-60
2022/11/30 14:05:45;;;;;;;60.88;30.55;;;;;;;;;;5030557;28;20052;-60
2022/11/30 14:08:16;;;;;;;65.32;32.65;;;;;;;;;;5019672;28;20081;-60
2022/11/30 14:10:46;;;;;;;61.03;30.13;;;;;;;;;;5049880;28;20037;-60
2022/11/30 14:13:13;;;;;;;62.93;29.87;;;;;;;;;;5048425;28;20056;-60
2022/11/30 14:15:40;;;;;;;62.33;31.80;;;;;;;;;;5035623;28;20767;-60
2022/11/30 14:18:09;;;;;;;65.90;32.05;;;;;;;;;;5049104;28;20045;-60
2022/11/30 14:20:48;;;;;;;63.95;32.53;;;;;;;;;;5034671;28;20124;-60
2022/11/30 14:23:26;;;;;;;63.67;31.42;;;;;;;;;;5035105;28;20493;-60
2022/11/30 14:25:55;;;;;;;61.15;32.75;;;;;;;;;;5039418;28;20394;-61
2022/11/30 14:28:23;;;;;;;60.60;29.85;;;;;;;;;;5026311;28;20044;-60
2022/11/30 14:30:50;;;;;;;63.40;32.72;;;;;;;;;;5049239;28;20044;-60
2022/11/30 14:33:25;;;;;;;65.07;32.83;;;;;;;;;;5040361;28;20064;-60
2022/11/30 14:35:54;;;;;;;66.05;31.48;;;;;;;;;;5053431;28;20095;-60